Monroe, Louisiana
Current Conditions -  °F | °C
As of 11:53 PM on Friday 28 Nov 2014 (Local Time) from KMLU Reporting Station
Clear Clear  
Wind Chill: 50°   Ceiling: Unl
Heat Index: 50°   Visibility: 10mi
Dew Point: 45°   Wind: 8mph
Humidity: 83%   Direction: 170°S
Pressure: 30.14"   Gusts: NA
Location:  32.51°N, 92.12°W
Report Text: KMLU 290553Z AUTO 17007KT 10SM CLR 10/07 A3014 RMK AO2 SLP207 T01000072 10122 20089 401671022 56012
Loading
Personal Weather Stations






























Interactive Weather Map New forecast layout! Learn more

10-Day Weather Forecast

Advertisements
Track Severe Weather on mobile